Time;durP1;ratioP1;P1;durP2;ratioP2;P2;SDS_P1;SDS_P2;PMS_P1;PMS_P2;Temp;Humidity;BMP_temperature;BMP_pressure;BME280_temperature;BME280_humidity;BME280_pressure;Samples;Min_cycle;Max_cycle;Signal;HPM_P1;HPM_P2
2022/05/13 00:01:53;;;;;;;5.43;2.38;;;;;;;23.05;39.39;97409.72;5014774;28;20025;-35
2022/05/13 00:04:19;;;;;;;4.03;2.22;;;;;;;22.99;39.59;97414.44;5046489;28;20033;-33
2022/05/13 00:06:45;;;;;;;6.65;2.65;;;;;;;23.03;39.45;97414.22;5014510;28;20108;-33
2022/05/13 00:09:10;;;;;;;4.30;1.90;;;;;;;23.01;39.33;97400.88;5014705;28;20099;-35
2022/05/13 00:11:36;;;;;;;4.38;2.40;;;;;;;22.96;39.47;97398.81;5046111;28;20045;-33
2022/05/13 00:14:03;;;;;;;4.30;2.42;;;;;;;22.98;39.74;97401.84;5013378;28;20042;-33
2022/05/13 00:16:29;;;;;;;3.88;2.88;;;;;;;23.01;39.07;97400.09;5014480;28;20145;-33
2022/05/13 00:18:54;;;;;;;5.40;2.30;;;;;;;23.01;39.15;97398.09;5014582;28;20100;-33
2022/05/13 00:21:20;;;;;;;3.10;1.98;;;;;;;23.01;38.92;97394.56;5014373;28;20030;-33
2022/05/13 00:23:46;;;;;;;4.95;2.03;;;;;;;22.95;39.14;97400.06;5014352;28;20034;-34
2022/05/13 00:26:11;;;;;;;6.68;2.28;;;;;;;22.97;38.99;97392.03;5013695;28;20018;-33
2022/05/13 00:28:37;;;;;;;4.53;2.45;;;;;;;22.92;39.19;97396.25;5014395;28;20526;-33
2022/05/13 00:31:04;;;;;;;2.78;1.80;;;;;;;22.91;39.10;97394.72;5014567;28;20121;-33
2022/05/13 00:33:30;;;;;;;5.38;2.25;;;;;;;22.88;38.76;97392.16;5014247;28;20093;-33
2022/05/13 00:35:57;;;;;;;4.70;2.60;;;;;;;22.92;39.12;97393.47;5014406;28;20100;-33
2022/05/13 00:38:23;;;;;;;4.10;2.33;;;;;;;22.92;38.84;97392.72;5014042;28;20033;-33
2022/05/13 00:40:48;;;;;;;3.22;2.35;;;;;;;22.86;38.90;97384.38;5014125;28;20026;-34
2022/05/13 00:43:35;;;;;;;4.55;1.90;;;;;;;22.89;38.93;97379.84;5014056;28;20108;-33
2022/05/13 00:46:03;;;;;;;2.42;2.03;;;;;;;22.84;38.47;97383.34;5013890;28;20022;-33
2022/05/13 00:48:29;;;;;;;8.52;2.92;;;;;;;22.85;38.87;97377.31;5013705;28;20427;-33
2022/05/13 00:50:55;;;;;;;5.00;2.10;;;;;;;22.80;39.02;97380.78;5014180;28;20066;-35
2022/05/13 00:53:22;;;;;;;6.25;2.92;;;;;;;22.83;38.49;97376.28;5014039;28;20040;-34
2022/05/13 00:55:47;;;;;;;3.88;2.05;;;;;;;22.80;38.55;97372.47;5014057;28;20033;-33
2022/05/13 00:58:17;;;;;;;3.13;2.38;;;;;;;22.79;38.96;97375.72;5014342;28;20029;-33
2022/05/13 01:00:43;;;;;;;4.07;2.45;;;;;;;22.75;38.66;97375.88;5013783;28;20087;-33
2022/05/13 01:03:11;;;;;;;4.57;2.10;;;;;;;22.75;38.39;97378.66;5013637;28;20040;-33
2022/05/13 01:05:38;;;;;;;4.88;1.90;;;;;;;22.73;38.77;97377.66;5013713;28;20026;-33
2022/05/13 01:08:06;;;;;;;4.38;2.28;;;;;;;22.75;38.15;97375.16;5013544;28;20037;-33
2022/05/13 01:10:33;;;;;;;3.20;1.95;;;;;;;22.74;38.08;97370.88;5013735;28;20026;-33
2022/05/13 01:13:06;;;;;;;2.97;1.95;;;;;;;22.75;38.15;97375.16;5013560;28;20155;-33
2022/05/13 01:15:35;;;;;;;3.47;2.10;;;;;;;22.73;38.16;97374.88;5013590;28;20029;-33
2022/05/13 01:18:07;;;;;;;4.10;2.10;;;;;;;22.70;38.38;97367.53;5045620;28;20025;-33
2022/05/13 01:20:37;;;;;;;2.25;2.05;;;;;;;22.74;38.35;97373.63;5013634;28;20038;-33
2022/05/13 01:23:26;;;;;;;4.28;1.63;;;;;;;22.71;38.03;97366.31;5045872;28;20040;-33
2022/05/13 01:26:05;;;;;;;4.82;2.35;;;;;;;22.75;38.12;97375.16;5013638;28;20140;-33
2022/05/13 01:28:34;;;;;;;5.00;1.90;;;;;;;22.68;37.82;97373.56;5012235;28;20356;-34
2022/05/13 01:31:04;;;;;;;4.88;2.00;;;;;;;22.67;37.77;97369.25;5013484;28;20476;-33
2022/05/13 01:33:30;;;;;;;3.08;1.90;;;;;;;22.66;37.85;97378.81;5013389;28;20034;-33
2022/05/13 01:35:58;;;;;;;3.67;1.90;;;;;;;22.66;37.83;97378.81;5013415;28;20022;-33
2022/05/13 01:38:28;;;;;;;5.00;2.20;;;;;;;22.62;38.37;97372.75;5016485;28;20036;-34
2022/05/13 01:40:54;;;;;;;5.65;2.20;;;;;;;22.61;37.47;97362.16;5017507;28;20030;-33
2022/05/13 01:43:20;;;;;;;3.70;2.00;;;;;;;22.63;37.53;97365.19;5017465;28;20364;-33
2022/05/13 01:45:46;;;;;;;2.97;1.70;;;;;;;22.59;37.67;97362.66;5017470;28;20032;-33
2022/05/13 01:48:12;;;;;;;3.05;1.77;;;;;;;22.64;37.60;97367.47;5017323;28;20037;-34
2022/05/13 01:50:38;;;;;;;4.85;2.60;;;;;;;;;;5017372;28;20029;-33
2022/05/13 01:53:05;;;;;;;3.50;2.38;;;;;;;22.66;37.15;97355.94;5017244;28;20112;-33
2022/05/13 01:55:31;;;;;;;3.63;1.85;;;;;;;22.60;37.01;97360.63;5017135;28;20456;-33
2022/05/13 01:57:56;;;;;;;2.72;1.60;;;;;;;22.55;36.38;97351.78;5017053;28;20044;-33
2022/05/13 02:00:22;;;;;;;2.83;1.52;;;;;;;22.61;37.17;97345.56;5016936;28;20165;-33
2022/05/13 02:05:32;;;;;;;4.25;1.60;;;;;;;22.49;36.75;97347.44;5017234;28;20084;-34
2022/05/13 02:07:58;;;;;;;2.85;1.55;;;;;;;22.55;36.81;97351.78;5017209;28;20037;-34
2022/05/13 02:10:24;;;;;;;3.45;1.58;;;;;;;22.52;36.59;97352.75;5016936;28;20100;-33
2022/05/13 02:12:50;;;;;;;2.55;1.60;;;;;;;22.53;36.40;97342.44;5016901;28;20048;-33
2022/05/13 02:15:17;;;;;;;4.38;1.50;;;;;;;22.47;36.37;97349.94;5016732;28;20029;-33
2022/05/13 02:17:42;;;;;;;2.63;1.30;;;;;;;22.50;36.53;97349.69;5016900;28;20032;-33
2022/05/13 02:20:10;;;;;;;3.58;1.75;;;;;;;22.48;36.14;97349.44;5016654;28;20025;-34
2022/05/13 02:22:36;;;;;;;2.25;1.40;;;;;;;22.47;36.28;97350.69;5016722;28;20045;-33
2022/05/13 02:25:02;;;;;;;4.97;1.75;;;;;;;22.45;36.56;97352.41;5016932;28;20376;-33
2022/05/13 02:27:28;;;;;;;2.33;1.60;;;;;;;22.43;36.16;97346.59;5016686;28;20026;-33
2022/05/13 02:29:53;;;;;;;2.95;1.25;;;;;;;22.44;36.46;97343.34;5016562;28;20025;-33
2022/05/13 02:32:19;;;;;;;4.32;1.40;;;;;;;22.41;35.91;97341.56;5016815;28;20072;-33
2022/05/13 02:34:45;;;;;;;2.25;1.35;;;;;;;22.39;35.72;97338.50;5016446;28;20472;-33
2022/05/13 02:37:10;;;;;;;3.17;1.30;;;;;;;22.41;35.86;97340.78;5016840;28;20472;-33
2022/05/13 02:39:36;;;;;;;1.38;1.00;;;;;;;22.40;36.25;97336.50;5016172;28;20030;-33
2022/05/13 02:42:01;;;;;;;2.92;1.30;;;;;;;22.41;36.29;97347.06;5016494;28;20033;-33
2022/05/13 02:44:27;;;;;;;3.22;1.33;;;;;;;22.37;35.79;97338.25;5016460;28;20092;-33
2022/05/13 02:46:52;;;;;;;4.93;1.42;;;;;;;22.33;36.27;97334.16;5016402;28;20029;-33
2022/05/13 02:49:18;;;;;;;1.92;1.30;;;;;;;22.36;35.61;97333.97;5015696;28;20018;-33
2022/05/13 02:51:46;;;;;;;3.28;1.30;;;;;;;22.37;35.62;97334.72;5016017;28;20042;-35
2022/05/13 02:54:12;;;;;;;4.13;1.30;;;;;;;22.35;36.19;97335.22;5015974;28;20102;-33
2022/05/13 02:56:38;;;;;;;3.15;1.60;;;;;;;22.38;35.61;97331.44;5016237;28;20061;-33
2022/05/13 02:59:04;;;;;;;2.92;1.10;;;;;;;22.36;36.12;97333.97;5016089;28;20026;-32
2022/05/13 03:01:32;;;;;;;4.53;1.10;;;;;;;22.33;35.41;97323.88;5015775;28;20030;-33
2022/05/13 03:03:58;;;;;;;2.00;1.30;;;;;;;22.29;35.30;97337.13;5015989;28;20025;-34
2022/05/13 03:06:24;;;;;;;3.25;1.08;;;;;;;22.36;36.18;97333.97;5015934;28;20030;-33
2022/05/13 03:08:49;;;;;;;2.35;1.00;;;;;;;22.30;35.97;97332.34;5015796;28;20028;-33
2022/05/13 03:11:16;;;;;;;3.15;1.33;;;;;;;22.32;35.60;97333.41;5015777;28;20361;-34
2022/05/13 03:13:42;;;;;;;2.53;1.15;;;;;;;22.30;35.07;97335.13;5047588;28;20039;-33
2022/05/13 03:16:11;;;;;;;2.88;1.20;;;;;;;22.32;35.74;97327.88;5015543;28;20029;-33
2022/05/13 03:18:40;;;;;;;2.75;1.02;;;;;;;22.29;34.88;97336.34;5015791;28;20022;-33
2022/05/13 03:21:08;;;;;;;2.88;1.20;;;;;;;22.24;35.50;97331.53;5015765;28;20368;-32
2022/05/13 03:23:33;;;;;;;2.15;0.90;;;;;;;22.22;35.57;97332.03;5015457;28;20101;-34
2022/05/13 03:25:59;;;;;;;3.88;1.45;;;;;;;22.25;35.14;97327.53;5015458;28;20504;-34
2022/05/13 03:28:25;;;;;;;2.33;1.30;;;;;;;22.26;35.57;97323.50;5015539;28;20038;-33
2022/05/13 03:30:51;;;;;;;3.08;1.10;;;;;;;22.26;35.65;97329.03;5015583;28;20388;-33
2022/05/13 03:33:17;;;;;;;1.92;0.90;;;;;;;22.30;35.53;97329.59;5015260;28;20029;-33
2022/05/13 03:35:43;;;;;;;2.22;1.05;;;;;;;22.23;35.15;97332.78;5015214;28;20121;-33
2022/05/13 03:38:10;;;;;;;2.33;0.95;;;;;;;22.27;35.59;97327.78;5046809;28;20061;-32
2022/05/13 03:40:36;;;;;;;5.15;1.33;;;;;;;22.25;35.01;97328.28;5015353;28;20096;-33
2022/05/13 03:43:04;;;;;;;3.08;1.48;;;;;;;22.25;34.68;97330.28;5015196;28;20029;-33
2022/05/13 03:45:34;;;;;;;4.10;2.25;;;;;;;22.19;35.29;97336.50;5015155;28;20480;-33
2022/05/13 03:48:00;;;;;;;4.05;2.13;;;;;;;22.23;35.37;97339.06;5015267;28;20500;-33
2022/05/13 03:50:27;;;;;;;6.95;3.83;;;;;;;22.26;35.33;97335.31;5014949;28;20022;-33
2022/05/13 03:52:52;;;;;;;4.70;2.03;;;;;;;22.19;35.15;97330.97;5015144;28;20026;-32
2022/05/13 03:55:19;;;;;;;6.45;2.80;;;;;;;22.20;34.81;97334.50;5046760;28;20365;-33
2022/05/13 03:57:44;;;;;;;5.85;2.60;;;;;;;22.25;35.13;97333.06;5030138;28;20064;-33
2022/05/13 04:00:12;;;;;;;8.43;3.15;;;;;;;22.17;34.67;97340.97;5014264;28;20038;-33
2022/05/13 04:02:38;;;;;;;7.80;3.28;;;;;;;22.17;34.95;97336.22;5014194;28;20112;-33
2022/05/13 04:10:34;;;;;;;7.80;2.72;;;;;;;22.13;35.13;97337.69;5015135;28;20068;-33
2022/05/13 04:18:28;;;;;;;11.45;4.15;;;;;;;22.16;35.45;97336.69;5014406;28;20510;-33
2022/05/13 04:20:53;;;;;;;9.52;3.42;;;;;;;22.15;34.68;97340.69;5014689;28;20030;-35
2022/05/13 04:23:19;;;;;;;8.98;3.60;;;;;;;22.13;34.88;97348.72;5014357;28;20468;-33
2022/05/13 04:25:45;;;;;;;10.80;4.38;;;;;;;22.12;34.55;97341.69;5014377;28;20030;-35
2022/05/13 04:28:10;;;;;;;8.32;3.80;;;;;;;22.16;34.70;97348.50;5014183;28;20018;-33
2022/05/13 04:30:36;;;;;;;8.93;3.60;;;;;;;22.15;34.66;97351.75;5014308;28;20384;-33
2022/05/13 04:33:03;;;;;;;10.35;4.07;;;;;;;22.14;34.99;97350.22;5014393;28;20032;-33
2022/05/13 04:35:29;;;;;;;9.77;3.70;;;;;;;22.08;34.80;97352.16;5014409;28;20504;-33
2022/05/13 04:37:54;;;;;;;10.20;3.20;;;;;;;22.10;34.60;97357.97;5014463;28;20049;-33
2022/05/13 04:40:19;;;;;;;5.50;2.95;;;;;;;22.07;34.40;97350.63;5014102;28;20021;-33
2022/05/13 04:42:51;;;;;;;8.43;3.17;;;;;;;22.06;34.62;97355.41;5014324;28;20654;-32
2022/05/13 04:45:30;;;;;;;8.02;2.92;;;;;;;22.09;34.59;97353.69;5014118;28;20028;-34
2022/05/13 04:48:16;;;;;;;9.43;3.55;;;;;;;22.03;34.87;97361.13;5014058;28;20369;-33
2022/05/13 04:50:53;;;;;;;7.28;3.17;;;;;;;22.06;34.86;97360.16;5014025;28;20032;-33
2022/05/13 04:53:22;;;;;;;8.63;2.38;;;;;;;22.05;34.77;97359.41;5013984;28;20036;-32
2022/05/13 04:55:49;;;;;;;6.72;2.78;;;;;;;22.04;34.80;97355.13;5013899;28;20021;-33
2022/05/13 04:58:16;;;;;;;4.47;2.30;;;;;;;22.07;34.78;97370.72;5012154;28;20033;-33
2022/05/13 05:00:42;;;;;;;7.82;3.10;;;;;;;22.03;34.69;97363.88;5000702;28;20025;-32
2022/05/13 05:03:07;;;;;;;5.95;2.38;;;;;;;22.03;35.12;97366.63;5011830;28;20026;-35
2022/05/13 05:05:33;;;;;;;6.20;2.17;;;;;;;22.05;34.91;97358.63;5011522;28;20088;-32
2022/05/13 05:07:58;;;;;;;6.07;2.75;;;;;;;22.05;35.57;97361.41;5011519;28;20530;-33
2022/05/13 05:10:25;;;;;;;6.05;2.55;;;;;;;22.04;35.45;97365.41;5011193;28;20026;-33
2022/05/13 05:12:57;;;;;;;8.07;2.83;;;;;;;21.99;35.70;97368.84;5009624;28;20046;-33
2022/05/13 05:15:24;;;;;;;5.72;2.47;;;;;;;22.00;35.59;97367.63;5011470;28;20555;-33
2022/05/13 05:17:50;;;;;;;9.50;2.40;;;;;;;22.10;35.48;97369.78;5011196;28;20030;-33
2022/05/13 05:20:17;;;;;;;6.60;2.50;;;;;;;22.12;35.49;97372.06;5011179;28;20026;-34
2022/05/13 05:22:46;;;;;;;6.18;2.63;;;;;;;22.10;35.33;97374.53;5011396;28;20034;-33
2022/05/13 05:25:13;;;;;;;9.18;2.42;;;;;;;22.12;35.45;97377.59;5026594;28;20029;-34
2022/05/13 05:27:38;;;;;;;7.03;2.63;;;;;;;22.07;35.75;97370.72;5011111;28;20399;-33
2022/05/13 05:30:06;;;;;;;7.00;2.78;;;;;;;22.08;35.34;97365.97;5011167;28;20034;-34
2022/05/13 05:32:32;;;;;;;5.47;2.10;;;;;;;22.07;36.01;97376.25;5011134;28;20049;-33
2022/05/13 05:34:57;;;;;;;4.43;2.13;;;;;;;22.02;35.90;97373.41;5010558;28;20033;-34
2022/05/13 05:37:23;;;;;;;6.80;2.20;;;;;;;22.05;35.71;97375.22;5011296;28;20036;-33
2022/05/13 05:39:48;;;;;;;7.50;2.20;;;;;;;22.12;36.10;97375.59;5010970;28;20566;-34
2022/05/13 05:42:14;;;;;;;7.20;2.03;;;;;;;22.02;36.10;97373.41;5011180;28;20424;-34
2022/05/13 05:44:39;;;;;;;4.35;1.83;;;;;;;22.01;36.10;97372.63;5011072;28;20034;-33
2022/05/13 05:47:05;;;;;;;9.70;2.10;;;;;;;22.03;36.01;97364.63;5010922;28;20075;-33
2022/05/13 05:49:31;;;;;;;8.90;2.03;;;;;;;22.06;35.72;97369.22;5011325;28;20476;-33
2022/05/13 05:51:57;;;;;;;5.80;2.00;;;;;;;22.03;36.14;97366.63;5011182;28;20208;-32
2022/05/13 05:57:16;;;;;;;6.13;1.98;;;;;;;22.09;36.49;97373.78;5011030;28;20503;-33
2022/05/13 05:59:46;;;;;;;5.80;1.85;;;;;;;22.07;36.31;97373.50;5011015;28;20018;-32
2022/05/13 06:02:12;;;;;;;5.00;1.60;;;;;;;22.09;36.38;97381.31;5011240;28;20483;-33
2022/05/13 06:04:38;;;;;;;5.07;1.50;;;;;;;22.07;35.88;97389.31;5011330;28;20034;-33
2022/05/13 06:07:09;;;;;;;5.20;1.60;;;;;;;22.09;36.35;97393.13;5011084;28;20033;-33
2022/05/13 06:09:36;;;;;;;7.90;1.60;;;;;;;22.00;36.39;97384.19;5010948;28;20049;-33
2022/05/13 06:12:03;;;;;;;2.95;1.60;;;;;;;21.95;36.59;97387.59;5011042;28;20047;-35
2022/05/13 06:14:28;;;;;;;4.55;1.60;;;;;;;21.99;36.26;97380.66;5009414;28;20037;-33
2022/05/13 06:16:54;;;;;;;4.53;1.23;;;;;;;22.06;35.86;97380.25;5011177;28;20443;-33
2022/05/13 06:19:20;;;;;;;4.20;1.50;;;;;;;22.01;35.85;97386.44;5011070;28;20022;-33
2022/05/13 06:21:46;;;;;;;3.53;1.25;;;;;;;22.11;36.36;97382.34;5010642;28;20453;-32
2022/05/13 06:24:12;;;;;;;3.53;1.52;;;;;;;22.04;36.08;97388.25;5012155;28;20037;-33
2022/05/13 06:26:37;;;;;;;3.60;1.50;;;;;;;22.01;36.07;97378.16;5014697;28;20044;-33
2022/05/13 06:29:05;;;;;;;5.53;2.10;;;;;;;21.85;36.11;97386.94;5015547;28;20026;-34
2022/05/13 06:31:31;;;;;;;4.65;1.58;;;;;;;21.83;35.69;97392.19;5016179;28;20080;-33
2022/05/13 06:33:56;;;;;;;5.70;1.88;;;;;;;21.92;35.75;97383.03;5016091;28;20025;-33
2022/05/13 06:36:22;;;;;;;4.72;1.35;;;;;;;21.84;36.45;97383.41;5015999;28;20030;-33
2022/05/13 06:38:47;;;;;;;3.50;1.10;;;;;;;22.00;36.03;97386.97;5016235;28;20057;-33
2022/05/13 06:41:13;;;;;;;2.70;1.40;;;;;;;21.74;36.43;97393.06;5016310;28;20034;-34
2022/05/13 06:43:38;;;;;;;3.38;1.25;;;;;;;21.92;36.45;97383.03;5016292;28;20030;-32
2022/05/13 06:46:05;;;;;;;6.28;1.20;;;;;;;21.81;36.76;97395.41;5016508;28;20022;-34
2022/05/13 06:48:30;;;;;;;4.22;1.23;;;;;;;21.82;36.66;97391.41;5016129;28;20490;-34
2022/05/13 06:50:56;;;;;;;3.08;1.55;;;;;;;21.82;36.67;97399.69;5016363;28;20030;-33
2022/05/13 06:53:22;;;;;;;4.47;1.30;;;;;;;21.88;36.62;97393.53;5016040;28;20076;-33
2022/05/13 06:55:49;;;;;;;2.22;1.10;;;;;;;21.83;36.39;97392.19;5016191;28;20112;-33
2022/05/13 06:58:15;;;;;;;4.80;1.25;;;;;;;21.81;36.87;97400.19;5015915;28;20018;-32
2022/05/13 07:00:42;;;;;;;4.72;1.33;;;;;;;21.93;36.67;97399.13;5016002;28;20552;-33
2022/05/13 07:03:12;;;;;;;2.60;1.10;;;;;;;21.80;37.08;97398.66;5015789;28;20046;-33
2022/05/13 07:05:38;;;;;;;4.43;1.40;;;;;;;22.00;36.97;97409.06;5016088;28;20053;-33
2022/05/13 07:08:04;;;;;;;3.63;1.02;;;;;;;21.98;37.05;97403.22;5016161;28;20030;-33
2022/05/13 07:10:29;;;;;;;3.17;1.00;;;;;;;21.95;37.25;97399.41;5016042;28;20022;-33
2022/05/13 07:12:55;;;;;;;2.88;1.05;;;;;;;21.83;37.37;97412.28;5030569;28;20038;-34
2022/05/13 07:15:21;;;;;;;2.03;0.93;;;;;;;21.88;37.63;97406.06;5015671;28;20030;-33
2022/05/13 07:17:47;;;;;;;3.63;1.05;;;;;;;21.96;37.39;97413.97;5015770;28;20029;-34
2022/05/13 07:20:14;;;;;;;5.55;1.20;;;;;;;21.89;38.19;97412.34;5015363;28;20018;-34
2022/05/13 07:22:39;;;;;;;4.88;1.30;;;;;;;21.79;38.25;97414.47;5015306;28;20034;-34
2022/05/13 07:25:15;;;;;;;3.03;1.15;;;;;;;21.89;37.89;97412.34;5015564;28;20108;-32
2022/05/13 07:27:40;;;;;;;1.90;0.90;;;;;;;21.82;38.02;97416.28;5015452;28;20034;-33
2022/05/13 07:30:07;;;;;;;3.15;1.00;;;;;;;21.91;37.95;97414.63;5015539;28;20084;-34
2022/05/13 07:32:33;;;;;;;4.25;1.33;;;;;;;21.89;38.49;97412.34;5015725;28;20038;-35
2022/05/13 07:34:59;;;;;;;3.55;1.38;;;;;;;21.84;38.11;97411.03;5015026;28;20410;-33
2022/05/13 07:37:24;;;;;;;6.35;1.20;;;;;;;21.85;38.39;97417.31;5015040;28;20080;-32
2022/05/13 07:42:34;;;;;;;4.60;1.15;;;;;;;21.89;38.28;97406.81;5015257;28;20066;-33
2022/05/13 07:45:00;;;;;;;2.90;1.00;;;;;;;21.87;38.21;97414.84;5015022;28;20058;-33
2022/05/13 07:47:25;;;;;;;3.63;1.10;;;;;;;21.86;38.39;97408.56;5015025;28;20030;-33
2022/05/13 07:49:51;;;;;;;3.42;1.60;;;;;;;21.97;37.94;97412.72;5014989;28;20020;-34
2022/05/13 07:52:16;;;;;;;3.55;1.10;;;;;;;21.96;37.99;97405.69;5015210;28;20018;-32
2022/05/13 07:54:41;;;;;;;4.82;1.10;;;;;;;21.91;38.14;97409.13;5015277;28;20029;-33
2022/05/13 07:57:08;;;;;;;2.67;1.30;;;;;;;21.94;38.04;97402.63;5014866;28;20061;-33
2022/05/13 08:00:24;;;;;;;2.50;0.82;;;;;;;21.95;38.60;97404.94;5014889;28;20036;-33
2022/05/13 08:02:19;;;;;;;5.05;1.38;;;;;;;21.89;37.32;97406.81;5014638;28;20399;-33
2022/05/13 08:04:44;;;;;;;1.95;1.30;;;;;;;21.84;37.89;97399.22;5014777;28;20030;-33
2022/05/13 08:07:10;;;;;;;6.95;1.15;;;;;;;21.67;37.35;97407.22;5014664;28;20034;-33
2022/05/13 08:09:36;;;;;;;4.85;1.27;;;;;;;21.59;37.40;97405.34;5014575;28;20024;-33
2022/05/13 08:12:01;;;;;;;6.15;1.25;;;;;;;21.82;37.19;97407.22;5014374;28;20080;-34
2022/05/13 08:14:27;;;;;;;3.47;1.10;;;;;;;21.93;37.41;97398.34;5014578;28;20109;-33
2022/05/13 08:16:52;;;;;;;4.55;1.33;;;;;;;21.79;37.10;97397.88;5014452;28;20460;-34
2022/05/13 08:19:18;;;;;;;4.47;1.35;;;;;;;21.96;37.78;97405.69;5014398;28;20022;-33
2022/05/13 08:21:43;;;;;;;4.18;1.40;;;;;;;21.93;37.52;97403.88;5014717;28;20117;-33
2022/05/13 08:24:08;;;;;;;2.92;1.25;;;;;;;21.98;37.21;97400.44;5014517;28;20025;-33
2022/05/13 08:26:34;;;;;;;4.07;1.50;;;;;;;21.83;36.15;97392.19;5014352;28;20030;-33
2022/05/13 08:29:00;;;;;;;7.43;1.60;;;;;;;21.44;37.64;97395.06;5014132;28;20057;-32
2022/05/13 08:31:26;;;;;;;3.58;1.42;;;;;;;21.16;37.51;97396.50;5012781;28;20060;-32
2022/05/13 08:33:51;;;;;;;20.55;3.80;;;;;;;21.31;37.11;97400.09;5012471;28;20409;-32
2022/05/13 08:36:17;;;;;;;9.65;2.13;;;;;;;21.42;35.79;97396.75;5013937;28;20479;-34
2022/05/13 08:38:44;;;;;;;12.00;2.50;;;;;;;21.58;35.63;97399.06;5014015;28;20036;-33
2022/05/13 08:41:10;;;;;;;7.97;2.65;;;;;;;21.76;36.31;97398.09;5012998;28;20034;-32
2022/05/13 08:43:56;;;;;;;9.48;3.75;;;;;;;21.83;36.75;97395.72;5013961;28;20133;-33
2022/05/13 08:46:37;;;;;;;13.93;2.75;;;;;;;21.87;36.54;97398.28;5014118;28;20030;-32
2022/05/13 08:49:20;;;;;;;8.20;2.33;;;;;;;21.81;36.75;97406.47;5013998;28;20057;-33
2022/05/13 08:53:06;;;;;;;6.20;1.80;;;;;;;21.74;36.20;97406.88;5013890;28;20037;-34
2022/05/13 08:54:53;;;;;;;10.32;2.80;;;;;;;21.86;36.61;97402.28;5013759;28;20072;-33
2022/05/13 08:57:20;;;;;;;12.43;2.88;;;;;;;21.92;36.76;97394.81;5014048;28;20450;-35
2022/05/13 08:59:52;;;;;;;10.48;2.35;;;;;;;21.84;36.99;97397.22;5013698;28;20100;-33
2022/05/13 09:02:26;;;;;;;7.10;3.67;;;;;;;21.25;36.04;97390.19;5013263;28;20026;-29
2022/05/13 09:05:00;;;;;;;24.75;15.57;;;;;;;21.41;35.96;97390.47;5013225;28;20473;-29
2022/05/13 09:07:26;;;;;;;21.65;10.15;;;;;;;21.32;36.47;97390.56;5013317;28;20026;-28
2022/05/13 09:10:06;;;;;;;40.65;30.02;;;;;;;21.26;36.44;97383.44;5013683;28;20052;-28
2022/05/13 09:12:34;;;;;;;61.22;34.13;;;;;;;21.37;37.18;97400.19;5013708;28;20046;-28
2022/05/13 09:15:15;;;;;;;29.42;18.48;;;;;;;21.43;36.37;97382.50;5013779;28;20077;-33
2022/05/13 09:18:00;;;;;;;55.20;39.20;;;;;;;21.92;36.29;97386.53;5013689;28;20033;-32
2022/05/13 09:20:26;;;;;;;58.88;37.78;;;;;;;21.82;36.17;97385.13;5013469;28;20029;-35
2022/05/13 09:22:58;;;;;;;54.10;36.67;;;;;;;21.71;36.58;97385.72;5013702;28;20049;-33
2022/05/13 09:25:33;;;;;;;38.08;26.85;;;;;;;21.78;36.74;97385.31;5013617;28;20022;-32
2022/05/13 09:28:01;;;;;;;54.70;37.40;;;;;;;21.95;36.30;97377.31;5012262;28;20026;-33
2022/05/13 09:30:41;;;;;;;46.13;31.15;;;;;;;22.03;36.39;97377.69;5013636;28;20030;-34
2022/05/13 09:33:23;;;;;;;51.30;35.00;;;;;;;22.04;36.39;97373.69;5013347;28;20022;-33
2022/05/13 09:35:53;;;;;;;58.95;37.80;;;;;;;22.02;36.61;97376.94;5013485;28;20029;-33
2022/05/13 09:38:25;;;;;;;51.75;35.13;;;;;;;21.99;36.86;97377.91;5013540;28;20034;-33
2022/05/13 09:41:01;;;;;;;44.15;30.13;;;;;;;22.05;36.91;97370.44;5013350;28;20488;-34
2022/05/13 09:43:54;;;;;;;60.63;27.73;;;;;;;22.09;36.92;97364.72;5013387;28;20483;-32
2022/05/13 09:46:33;;;;;;;33.00;22.55;;;;;;;22.04;36.45;97362.63;4990016;28;20038;-33
2022/05/13 09:49:04;;;;;;;38.97;26.77;;;;;;;21.98;36.65;97359.03;4992057;28;20026;-34
2022/05/13 09:51:35;;;;;;;33.88;21.25;;;;;;;21.97;36.97;97351.97;4991834;28;20069;-33
2022/05/13 09:54:12;;;;;;;33.75;22.67;;;;;;;21.77;36.51;97350.66;4991865;28;20065;-33
2022/05/13 09:56:46;;;;;;;35.33;21.52;;;;;;;21.97;36.66;97358.25;5002150;28;20113;-33
2022/05/13 09:59:20;;;;;;;31.98;19.77;;;;;;;22.03;36.47;97345.31;5009437;28;20156;-32
2022/05/13 10:01:46;;;;;;;34.83;23.80;;;;;;;22.10;36.72;97355.22;5015038;28;20116;-33
2022/05/13 10:04:26;;;;;;;29.58;20.00;;;;;;;22.07;36.65;97351.41;5014963;28;20108;-33
2022/05/13 10:07:05;;;;;;;25.50;19.38;;;;;;;22.09;36.46;97351.69;5015010;28;20605;-33
2022/05/13 10:15:53;;;;;;;20.58;14.93;;;;;;;21.93;37.26;97343.88;5013305;28;20049;-32
2022/05/13 10:18:32;;;;;;;23.42;16.13;;;;;;;22.09;37.17;97345.41;5014844;28;20112;-33
2022/05/13 10:21:09;;;;;;;22.98;15.05;;;;;;;22.04;36.91;97327.50;5014646;28;20033;-33
2022/05/13 10:23:56;;;;;;;22.27;15.00;;;;;;;21.97;36.88;97335.41;5012806;28;20034;-33
2022/05/13 10:26:25;;;;;;;17.30;13.95;;;;;;;21.94;37.28;97328.81;5014623;28;20034;-32
2022/05/13 10:29:24;;;;;;;20.25;13.75;;;;;;;22.04;37.18;97329.50;5014672;28;20025;-33
2022/05/13 10:31:50;;;;;;;14.68;11.20;;;;;;;21.97;37.07;97322.34;5011362;28;20047;-34
2022/05/13 10:34:34;;;;;;;19.50;11.20;;;;;;;22.02;37.00;97320.91;5014271;28;20476;-33
2022/05/13 10:37:18;;;;;;;;;;;;;;;22.03;36.92;97323.22;5014854;28;20025;-35
2022/05/13 10:39:54;;;;;;;16.65;10.18;;;;;;;22.04;37.15;97318.44;5014565;28;19914;-33
2022/05/13 10:42:28;;;;;;;14.18;8.90;;;;;;;22.09;37.00;97317.78;5014332;28;20108;-33
2022/05/13 10:45:21;;;;;;;12.30;8.18;;;;;;;22.13;36.96;97321.09;5014154;28;20373;-33
2022/05/13 10:48:01;;;;;;;14.50;8.18;;;;;;;22.13;37.10;97310.06;5014328;28;20080;-32
2022/05/13 10:50:35;;;;;;;11.60;8.32;;;;;;;22.05;36.68;97314.44;5004308;28;20357;-32
2022/05/13 10:53:03;;;;;;;9.73;6.55;;;;;;;22.06;36.45;97315.97;5016500;28;20161;-32
2022/05/13 10:55:53;;;;;;;10.55;7.10;;;;;;;22.12;36.81;97314.06;5016194;28;20025;-33
2022/05/13 10:58:51;;;;;;;9.52;6.43;;;;;;;22.11;36.62;97307.78;5015611;28;20026;-32
2022/05/13 11:01:40;;;;;;;12.82;6.00;;;;;;;22.12;36.58;97303.00;5031158;28;20130;-33
2022/05/13 11:04:26;;;;;;;9.05;5.78;;;;;;;22.04;36.71;97305.41;5016008;28;20029;-33
2022/05/13 11:07:05;;;;;;;7.10;4.90;;;;;;;22.19;36.74;97308.09;5015791;28;20132;-33
2022/05/13 11:09:46;;;;;;;6.80;4.85;;;;;;;21.98;36.73;97306.53;5030760;28;20026;-33
2022/05/13 11:12:37;;;;;;;8.32;4.88;;;;;;;22.04;36.56;97301.88;5015611;28;20037;-33
2022/05/13 11:15:06;;;;;;;7.13;4.80;;;;;;;22.10;36.35;97299.97;5015533;28;20044;-34
2022/05/13 11:17:40;;;;;;;6.68;4.10;;;;;;;22.11;36.40;97301.47;5015945;28;20168;-34
2022/05/13 11:20:25;;;;;;;6.45;4.05;;;;;;;22.10;36.44;97297.97;5015793;28;20511;-32
2022/05/13 11:22:58;;;;;;;7.43;4.88;;;;;;;22.19;36.47;97288.75;5015408;28;20033;-33
2022/05/13 11:25:56;;;;;;;5.97;4.20;;;;;;;22.17;36.72;97297.53;5015576;28;20092;-32
2022/05/13 11:28:22;;;;;;;5.10;3.90;;;;;;;22.23;36.61;97297.63;5015592;28;20021;-33
2022/05/13 11:31:14;;;;;;;8.73;3.47;;;;;;;22.25;36.59;97295.13;5015666;28;20368;-34
2022/05/13 11:33:40;;;;;;;6.13;3.53;;;;;;;22.26;36.49;97296.63;5015464;28;20510;-35
2022/05/13 11:36:31;;;;;;;7.60;3.63;;;;;;;22.27;36.51;97297.41;5015279;28;20034;-33
2022/05/13 11:39:10;;;;;;;5.10;3.25;;;;;;;22.28;36.90;97285.09;5015251;28;20025;-33
2022/05/13 11:41:59;;;;;;;6.43;3.20;;;;;;;22.30;36.60;97283.38;5015461;28;20033;-33
2022/05/13 11:44:38;;;;;;;7.90;3.78;;;;;;;22.26;36.61;97279.28;5014311;28;20364;-33
2022/05/13 11:47:07;;;;;;;4.78;3.40;;;;;;;22.19;37.15;97286.75;5014972;28;20476;-36
2022/05/13 11:49:43;;;;;;;5.38;3.10;;;;;;;22.30;36.81;97285.38;5015174;28;20034;-33
2022/05/13 11:52:11;;;;;;;6.18;3.00;;;;;;;22.20;37.02;97273.72;5015198;28;20026;-33
2022/05/13 11:54:42;;;;;;;4.57;2.80;;;;;;;22.27;37.12;97278.06;5015031;28;20033;-33
2022/05/13 11:57:16;;;;;;;4.13;2.60;;;;;;;22.26;37.11;97274.53;5015129;28;20476;-33
2022/05/13 11:59:45;;;;;;;5.43;2.65;;;;;;;22.24;37.25;97274.28;5014781;28;20029;-33
2022/05/13 12:02:32;;;;;;;5.55;2.70;;;;;;;22.18;36.91;97270.66;5014889;28;20104;-32
2022/05/13 12:05:07;;;;;;;5.45;2.50;;;;;;;22.20;37.18;97271.72;5014572;28;20030;-32
2022/05/13 12:07:39;;;;;;;5.43;2.90;;;;;;;22.28;36.95;97272.03;5014951;28;20030;-33
2022/05/13 12:10:06;;;;;;;2.90;2.50;;;;;;;22.27;36.64;97258.72;5014800;28;20029;-33